Time;durP1;ratioP1;P1;durP2;ratioP2;P2;SDS_P1;SDS_P2;PMS_P1;PMS_P2;Temp;Humidity;BMP_temperature;BMP_pressure;BME280_temperature;BME280_humidity;BME280_pressure;Samples;Min_cycle;Max_cycle;Signal;HPM_P1;HPM_P2
2024/01/11 00:01:10;;;;;;;54.95;30.17;;;-2.80;99.90;;;;;;4995412;28;20237;-69
2024/01/11 00:03:37;;;;;;;53.88;30.85;;;-2.90;99.90;;;;;;4999475;28;20292;-68
2024/01/11 00:06:04;;;;;;;55.95;29.30;;;-3.00;99.90;;;;;;4993748;28;20260;-69
2024/01/11 00:08:31;;;;;;;62.50;31.38;;;-3.00;99.90;;;;;;4996944;28;20197;-69
2024/01/11 00:10:58;;;;;;;52.60;29.48;;;-3.00;99.90;;;;;;4998444;28;20209;-69
2024/01/11 00:13:25;;;;;;;56.00;31.95;;;-3.10;99.90;;;;;;4995743;28;20230;-68
2024/01/11 00:15:54;;;;;;;57.58;29.48;;;-3.10;99.90;;;;;;4993379;28;20236;-68
2024/01/11 00:18:21;;;;;;;57.72;30.45;;;-3.10;99.90;;;;;;4994756;28;20661;-68
2024/01/11 00:20:48;;;;;;;53.67;30.55;;;-3.00;99.90;;;;;;4993487;28;20205;-68
2024/01/11 00:23:15;;;;;;;58.10;32.17;;;-3.00;99.90;;;;;;4996518;28;20226;-68
2024/01/11 00:25:42;;;;;;;65.03;34.30;;;-3.00;99.90;;;;;;4996115;28;20676;-69
2024/01/11 00:28:09;;;;;;;69.72;33.28;;;-2.90;99.90;;;;;;5004033;28;20213;-68
2024/01/11 00:30:36;;;;;;;60.70;32.72;;;-2.80;99.90;;;;;;4996188;28;20294;-67
2024/01/11 00:33:06;;;;;;;59.00;30.33;;;-2.80;99.90;;;;;;4993065;28;20321;-69
2024/01/11 00:35:33;;;;;;;64.30;31.05;;;-2.80;99.90;;;;;;4995811;28;20687;-69
2024/01/11 00:38:00;;;;;;;61.63;30.90;;;-2.80;99.90;;;;;;4999360;28;20271;-69
2024/01/11 00:40:27;;;;;;;71.95;31.67;;;-2.80;99.90;;;;;;4996829;28;20263;-68
2024/01/11 00:42:54;;;;;;;63.33;30.08;;;-2.90;99.90;;;;;;4998073;28;20717;-68
2024/01/11 00:45:21;;;;;;;54.20;29.75;;;-2.90;99.90;;;;;;4994374;28;20214;-68
2024/01/11 00:47:48;;;;;;;58.90;35.17;;;-2.90;99.90;;;;;;5003705;28;20217;-68
2024/01/11 00:50:16;;;;;;;66.25;34.67;;;-2.90;99.90;;;;;;4992218;28;20641;-70
2024/01/11 00:52:43;;;;;;;64.78;32.65;;;-2.90;99.90;;;;;;4999514;28;20656;-69
2024/01/11 00:55:10;;;;;;;71.60;33.88;;;-2.90;99.90;;;;;;4996844;28;20253;-69
2024/01/11 00:57:37;;;;;;;70.68;35.20;;;-3.00;99.90;;;;;;4995188;28;20208;-68
2024/01/11 01:00:05;;;;;;;65.45;32.35;;;-3.10;99.90;;;;;;5001250;28;20202;-69
2024/01/11 01:02:32;;;;;;;59.42;32.42;;;-3.20;99.90;;;;;;4999557;28;20220;-70
2024/01/11 01:04:59;;;;;;;74.25;36.08;;;-3.20;99.90;;;;;;5001828;28;20264;-68
2024/01/11 01:07:28;;;;;;;67.53;34.83;;;-3.20;99.90;;;;;;4999147;28;20218;-69
2024/01/11 01:09:56;;;;;;;79.93;31.65;;;-3.20;99.90;;;;;;4994951;28;20202;-72
2024/01/11 01:12:24;;;;;;;69.97;33.63;;;-3.30;99.90;;;;;;5011004;28;20225;-67
2024/01/11 01:14:52;;;;;;;70.22;35.88;;;-3.30;99.90;;;;;;4999422;28;20214;-67
2024/01/11 01:17:18;;;;;;;76.00;35.55;;;-3.40;99.90;;;;;;5000244;28;20252;-67
2024/01/11 01:19:46;;;;;;;75.40;37.50;;;-3.40;99.90;;;;;;5014682;28;20636;-66
2024/01/11 01:22:13;;;;;;;76.88;38.10;;;-3.40;99.90;;;;;;5013429;28;20230;-70
2024/01/11 01:24:44;;;;;;;80.18;38.90;;;-3.40;99.90;;;;;;4997815;28;20198;-68
2024/01/11 01:27:11;;;;;;;62.95;30.48;;;-3.40;99.90;;;;;;5011968;28;20647;-68
2024/01/11 01:29:38;;;;;;;87.78;37.97;;;-3.40;99.90;;;;;;5012513;28;20567;-69
2024/01/11 01:32:06;;;;;;;79.90;35.00;;;-3.40;99.90;;;;;;4999953;28;20585;-70
2024/01/11 01:34:33;;;;;;;75.57;35.00;;;-3.40;99.90;;;;;;5005145;28;20218;-69
2024/01/11 01:37:01;;;;;;;86.97;38.90;;;-3.30;99.90;;;;;;4993493;28;20230;-69
2024/01/11 01:39:28;;;;;;;75.05;33.65;;;-3.10;99.90;;;;;;5002914;28;20248;-68
2024/01/11 01:41:56;;;;;;;72.78;35.15;;;-3.20;99.90;;;;;;5006994;28;20225;-69
2024/01/11 01:44:23;;;;;;;72.20;36.55;;;-3.10;99.90;;;;;;5013027;28;20206;-68
2024/01/11 01:46:52;;;;;;;79.38;36.22;;;-3.10;99.90;;;;;;5008544;28;20205;-68
2024/01/11 01:49:22;;;;;;;73.65;38.30;;;-3.20;99.90;;;;;;5004528;28;20302;-69
2024/01/11 01:51:49;;;;;;;75.68;36.50;;;-3.20;99.90;;;;;;4997755;28;20261;-68
2024/01/11 01:54:19;;;;;;;84.45;38.63;;;-3.30;99.90;;;;;;5007449;28;20615;-71
2024/01/11 01:56:46;;;;;;;75.13;37.42;;;-3.40;99.90;;;;;;5008391;28;20280;-68
2024/01/11 01:59:17;;;;;;;75.03;35.67;;;-3.50;99.90;;;;;;5005457;28;20209;-68
2024/01/11 02:01:44;;;;;;;78.97;38.83;;;-3.50;99.90;;;;;;5009806;28;20227;-66
2024/01/11 02:04:11;;;;;;;76.95;35.55;;;-3.60;99.90;;;;;;5007864;28;20212;-68
2024/01/11 02:06:39;;;;;;;89.60;40.38;;;-3.50;99.90;;;;;;5007584;28;20198;-68
2024/01/11 02:09:08;;;;;;;83.95;37.88;;;-3.50;99.90;;;;;;5003795;28;20206;-68
2024/01/11 02:11:35;;;;;;;79.25;36.78;;;-3.60;99.90;;;;;;5003098;28;20229;-70
2024/01/11 02:14:02;;;;;;;79.05;34.50;;;-3.60;99.90;;;;;;5002065;28;20618;-68
2024/01/11 02:16:31;;;;;;;87.40;38.30;;;-3.50;99.90;;;;;;5006481;28;20225;-69
2024/01/11 02:18:58;;;;;;;86.30;37.03;;;-3.40;99.90;;;;;;5002272;28;20206;-68
2024/01/11 02:21:27;;;;;;;77.55;36.08;;;-3.30;99.90;;;;;;5001791;28;20202;-68
2024/01/11 02:24:04;;;;;;;86.60;40.75;;;-3.40;99.90;;;;;;5014625;28;20252;-70
2024/01/11 02:26:31;;;;;;;94.75;43.55;;;-3.40;99.90;;;;;;5008699;28;20209;-68
2024/01/11 02:28:59;;;;;;;84.53;38.75;;;-3.30;99.90;;;;;;5003629;28;20210;-69
2024/01/11 02:31:26;;;;;;;76.65;36.13;;;-3.20;99.90;;;;;;4995245;28;20210;-68
2024/01/11 02:33:54;;;;;;;73.30;37.28;;;-3.20;99.90;;;;;;5002893;28;20206;-68
2024/01/11 02:36:22;;;;;;;85.10;37.65;;;-3.10;99.90;;;;;;5003027;28;20225;-69
2024/01/11 02:38:51;;;;;;;90.75;39.58;;;-3.10;99.90;;;;;;5000428;28;20201;-69
2024/01/11 02:41:20;;;;;;;91.80;42.70;;;-3.20;99.90;;;;;;4996340;28;20210;-68
2024/01/11 02:43:48;;;;;;;87.43;37.20;;;-3.20;99.90;;;;;;4995661;28;20236;-70
2024/01/11 02:46:16;;;;;;;88.03;41.42;;;-3.20;99.90;;;;;;4995902;28;20202;-71
2024/01/11 02:48:43;;;;;;;81.03;36.60;;;-3.20;99.90;;;;;;4995669;28;20284;-69
2024/01/11 02:51:10;;;;;;;76.85;37.80;;;-3.20;99.90;;;;;;4994239;28;20626;-70
2024/01/11 02:53:37;;;;;;;71.13;35.83;;;-3.10;99.90;;;;;;4995190;28;20245;-67
2024/01/11 02:56:04;;;;;;;80.57;36.00;;;-3.10;99.90;;;;;;5000659;28;20213;-69
2024/01/11 02:58:33;;;;;;;80.70;38.53;;;-3.10;99.90;;;;;;5000070;28;20242;-68
2024/01/11 03:01:00;;;;;;;76.22;36.60;;;-3.00;99.90;;;;;;4995382;28;20730;-68
2024/01/11 03:03:26;;;;;;;76.10;35.78;;;-3.00;99.90;;;;;;4995401;28;20693;-69
2024/01/11 03:05:54;;;;;;;68.35;35.20;;;-2.80;99.90;;;;;;4995608;28;20264;-69
2024/01/11 03:08:20;;;;;;;76.03;36.40;;;-2.80;99.90;;;;;;4998098;28;20198;-69
2024/01/11 03:10:48;;;;;;;66.70;31.77;;;-2.80;99.90;;;;;;5003466;28;20261;-68
2024/01/11 03:13:14;;;;;;;74.68;32.88;;;-2.70;99.90;;;;;;5004277;28;20225;-69
2024/01/11 03:15:43;;;;;;;75.38;35.30;;;-2.80;99.90;;;;;;4999035;28;20786;-68
2024/01/11 03:18:10;;;;;;;72.35;35.03;;;-2.80;99.90;;;;;;5002567;28;20256;-68
2024/01/11 03:20:37;;;;;;;73.40;33.03;;;-2.80;99.90;;;;;;5001895;28;20240;-68
2024/01/11 03:23:05;;;;;;;76.18;34.85;;;-2.80;99.90;;;;;;4997068;28;20233;-69
2024/01/11 03:25:33;;;;;;;69.57;30.88;;;-2.80;99.90;;;;;;4995657;28;20563;-68
2024/01/11 03:28:00;;;;;;;63.35;31.80;;;-3.00;99.90;;;;;;5002825;28;20275;-69
2024/01/11 03:30:27;;;;;;;69.93;32.65;;;-3.10;99.90;;;;;;4994881;28;20696;-70
2024/01/11 03:32:55;;;;;;;80.55;34.28;;;-3.10;99.90;;;;;;5000855;28;20218;-68
2024/01/11 03:35:23;;;;;;;77.38;32.17;;;-3.10;99.90;;;;;;4994141;28;20230;-67
2024/01/11 03:37:50;;;;;;;79.07;36.72;;;-3.20;99.90;;;;;;5006139;28;20629;-69
2024/01/11 03:40:17;;;;;;;69.28;32.35;;;-3.20;99.90;;;;;;5006175;28;20291;-68
2024/01/11 03:42:44;;;;;;;73.60;32.90;;;-3.20;99.90;;;;;;5004013;28;20312;-67
2024/01/11 03:45:11;;;;;;;69.53;33.97;;;-3.10;99.90;;;;;;4997113;28;20197;-69
2024/01/11 03:47:38;;;;;;;78.13;37.72;;;-3.00;99.90;;;;;;5004172;28;20216;-67
2024/01/11 03:50:07;;;;;;;79.10;33.78;;;-2.90;99.90;;;;;;4998224;28;20256;-68
2024/01/11 03:52:34;;;;;;;90.32;38.83;;;-2.90;99.90;;;;;;5003407;28;20236;-68
2024/01/11 03:55:01;;;;;;;82.22;36.88;;;-3.00;99.90;;;;;;5001534;28;20210;-68
2024/01/11 03:57:28;;;;;;;78.53;36.45;;;-3.00;99.90;;;;;;5000188;28;20289;-68
2024/01/11 03:59:55;;;;;;;83.00;40.45;;;-3.00;99.90;;;;;;4999911;28;20233;-67
2024/01/11 04:02:22;;;;;;;74.18;33.42;;;-3.10;99.90;;;;;;4997468;28;20229;-69
2024/01/11 04:04:49;;;;;;;79.07;37.05;;;-3.20;99.90;;;;;;5003038;28;20283;-67
2024/01/11 04:07:18;;;;;;;90.18;38.85;;;-3.20;99.90;;;;;;4996341;28;20240;-69
2024/01/11 04:09:45;;;;;;;88.97;39.58;;;-3.20;99.90;;;;;;5000090;28;20259;-67
2024/01/11 04:12:12;;;;;;;92.20;39.15;;;-3.30;99.90;;;;;;5010636;28;20225;-67
2024/01/11 04:14:40;;;;;;;89.35;39.15;;;-3.40;99.90;;;;;;4994576;28;20205;-68
2024/01/11 04:17:07;;;;;;;80.68;37.95;;;-3.30;99.90;;;;;;5000820;28;20232;-70
2024/01/11 04:19:34;;;;;;;99.03;40.63;;;-3.30;99.90;;;;;;4993807;28;20240;-67
2024/01/11 04:22:01;;;;;;;83.68;39.08;;;-3.20;99.90;;;;;;4998794;28;20791;-69
2024/01/11 04:24:30;;;;;;;83.30;37.00;;;-3.10;99.90;;;;;;4993765;28;20201;-69
2024/01/11 04:26:57;;;;;;;80.43;38.75;;;-3.00;99.90;;;;;;4994527;28;20281;-69
2024/01/11 04:29:24;;;;;;;77.53;34.10;;;-2.90;99.90;;;;;;4997577;28;20665;-68
2024/01/11 04:31:51;;;;;;;78.57;36.95;;;-2.90;99.90;;;;;;4993637;28;20221;-69
2024/01/11 04:34:18;;;;;;;66.28;35.55;;;-2.80;99.90;;;;;;4996132;28;20638;-68
2024/01/11 04:36:46;;;;;;;76.72;35.05;;;-2.80;99.90;;;;;;4994084;28;20222;-69
2024/01/11 04:39:13;;;;;;;73.38;34.22;;;-2.90;99.90;;;;;;4995385;28;20585;-69
2024/01/11 04:41:41;;;;;;;66.68;31.40;;;-3.10;99.90;;;;;;4994904;28;20727;-69
2024/01/11 04:44:08;;;;;;;64.75;33.03;;;-3.20;99.90;;;;;;4994003;28;20202;-68
2024/01/11 04:46:36;;;;;;;72.07;34.90;;;-3.20;99.90;;;;;;5006854;28;20653;-68
2024/01/11 04:49:03;;;;;;;66.68;33.03;;;-3.20;99.90;;;;;;4997352;28;20205;-68
2024/01/11 04:51:30;;;;;;;74.78;34.00;;;-3.20;99.90;;;;;;4998301;28;20269;-69
2024/01/11 04:53:57;;;;;;;66.35;33.00;;;-3.10;99.90;;;;;;4996202;28;20264;-69
2024/01/11 04:56:24;;;;;;;62.75;32.03;;;-3.10;99.90;;;;;;4993051;28;20284;-69
2024/01/11 04:58:52;;;;;;;73.20;33.35;;;-3.10;99.90;;;;;;4993424;28;20202;-70
2024/01/11 05:01:19;;;;;;;81.70;35.92;;;-3.10;99.90;;;;;;4996641;28;20244;-68
2024/01/11 05:03:47;;;;;;;79.43;33.25;;;-3.10;99.90;;;;;;4999596;28;20234;-69
2024/01/11 05:06:18;;;;;;;70.22;35.00;;;-3.20;99.90;;;;;;4996865;28;20225;-69
2024/01/11 05:08:45;;;;;;;71.30;33.80;;;-3.20;99.90;;;;;;4998587;28;20206;-68
2024/01/11 05:11:18;;;;;;;89.28;35.08;;;-3.20;99.90;;;;;;5001757;28;20732;-69
2024/01/11 05:13:47;;;;;;;81.18;36.63;;;-3.20;99.90;;;;;;4992997;28;20208;-68
2024/01/11 05:16:20;;;;;;;74.53;34.42;;;-3.20;99.90;;;;;;5002551;28;20313;-72
2024/01/11 05:18:47;;;;;;;93.28;37.20;;;-3.10;99.90;;;;;;4997820;28;20202;-68
2024/01/11 05:21:15;;;;;;;97.70;33.88;;;-3.10;99.90;;;;;;4998438;28;20268;-68
2024/01/11 05:23:42;;;;;;;83.65;35.25;;;-3.10;99.90;;;;;;5002847;28;20768;-67
2024/01/11 05:26:10;;;;;;;87.80;36.83;;;-3.20;99.90;;;;;;5000308;28;20281;-67
2024/01/11 05:28:38;;;;;;;83.95;33.78;;;-3.10;99.90;;;;;;5007021;28;20248;-68
2024/01/11 05:31:08;;;;;;;79.65;36.65;;;-3.10;99.90;;;;;;5006610;28;20212;-69
2024/01/11 05:33:36;;;;;;;68.82;33.05;;;-3.00;99.90;;;;;;5001751;28;20658;-67
2024/01/11 05:36:04;;;;;;;81.22;35.05;;;-2.80;99.90;;;;;;4997646;28;20217;-68
2024/01/11 05:38:31;;;;;;;83.28;34.67;;;-2.70;99.90;;;;;;5003955;28;20262;-69
2024/01/11 05:40:58;;;;;;;72.07;34.42;;;-2.80;99.90;;;;;;5007553;28;20209;-69
2024/01/11 05:43:25;;;;;;;76.60;32.28;;;-2.80;99.90;;;;;;4998905;28;20226;-68
2024/01/11 05:45:53;;;;;;;69.50;34.10;;;-2.70;99.90;;;;;;4998501;28;20308;-70
2024/01/11 05:48:20;;;;;;;79.13;36.85;;;-2.70;99.90;;;;;;4998241;28;20660;-69
2024/01/11 05:50:48;;;;;;;73.07;33.40;;;-2.80;99.90;;;;;;4998240;28;20537;-69
2024/01/11 05:53:17;;;;;;;93.25;40.08;;;-2.70;99.90;;;;;;5005637;28;20316;-69
2024/01/11 05:55:44;;;;;;;82.32;36.38;;;-2.70;99.90;;;;;;5003250;28;20669;-68
2024/01/11 05:58:11;;;;;;;95.10;42.20;;;-2.80;99.90;;;;;;4998625;28;20224;-69
2024/01/11 06:00:38;;;;;;;89.68;37.92;;;-2.80;99.90;;;;;;5002629;28;20202;-68
2024/01/11 06:03:05;;;;;;;104.68;40.20;;;-2.70;99.90;;;;;;4997438;28;20515;-69
2024/01/11 06:05:32;;;;;;;102.25;38.05;;;-2.80;99.90;;;;;;5000947;28;20205;-69
2024/01/11 06:08:01;;;;;;;97.90;39.80;;;-2.90;99.90;;;;;;5006641;28;20209;-71
2024/01/11 06:10:28;;;;;;;107.85;43.17;;;-3.00;99.90;;;;;;5000699;28;20202;-70
2024/01/11 06:12:56;;;;;;;100.47;39.53;;;-2.90;99.90;;;;;;5008681;28;20279;-66
2024/01/11 06:15:23;;;;;;;104.28;45.42;;;-2.80;99.90;;;;;;5008149;28;20206;-67
2024/01/11 06:17:50;;;;;;;111.60;42.75;;;-2.70;99.90;;;;;;5001819;28;20252;-68
2024/01/11 06:20:17;;;;;;;108.70;41.90;;;-2.70;99.90;;;;;;4997213;28;21332;-70
2024/01/11 06:22:44;;;;;;;100.55;42.63;;;-2.70;99.90;;;;;;5005889;28;20234;-69
2024/01/11 06:25:13;;;;;;;112.22;40.42;;;-2.80;99.90;;;;;;5008214;28;20240;-71
2024/01/11 06:27:42;;;;;;;93.78;39.22;;;-2.70;99.90;;;;;;5002557;28;20206;-68
2024/01/11 06:30:10;;;;;;;82.68;38.67;;;-2.60;99.90;;;;;;4999691;28;20213;-67
2024/01/11 06:32:37;;;;;;;96.82;39.63;;;-2.40;99.90;;;;;;5005574;28;20228;-68
2024/01/11 06:35:05;;;;;;;119.25;45.42;;;-2.30;99.90;;;;;;5009149;28;20202;-68
2024/01/11 06:37:32;;;;;;;102.90;39.80;;;-2.40;99.90;;;;;;5009081;28;20221;-68
2024/01/11 06:39:59;;;;;;;88.35;38.80;;;-2.40;99.90;;;;;;5003364;28;20209;-68
2024/01/11 06:42:27;;;;;;;94.43;41.83;;;-2.30;99.90;;;;;;4995417;28;20226;-71
2024/01/11 06:44:54;;;;;;;106.50;42.53;;;-2.30;99.90;;;;;;4995466;28;20229;-70
2024/01/11 06:47:22;;;;;;;95.25;41.95;;;-2.20;99.90;;;;;;5004719;28;20738;-69
2024/01/11 06:49:49;;;;;;;93.28;40.70;;;-2.00;99.90;;;;;;4997363;28;20542;-73
2024/01/11 06:52:16;;;;;;;92.93;40.88;;;-1.90;99.90;;;;;;4998789;28;20241;-70
2024/01/11 06:54:43;;;;;;;119.15;42.00;;;-2.00;99.90;;;;;;4999245;28;20776;-70
2024/01/11 06:57:10;;;;;;;113.53;43.78;;;-2.10;99.90;;;;;;5000832;28;20308;-70
2024/01/11 06:59:39;;;;;;;102.20;40.83;;;-2.20;99.90;;;;;;5006539;28;20674;-70
2024/01/11 07:02:06;;;;;;;95.03;43.30;;;-2.10;99.90;;;;;;4996054;28;20229;-72
2024/01/11 07:04:34;;;;;;;105.38;43.58;;;-2.00;99.90;;;;;;4999329;28;20580;-70
2024/01/11 07:07:01;;;;;;;121.13;40.50;;;-2.20;99.90;;;;;;5004728;28;20263;-72
2024/01/11 07:09:29;;;;;;;109.45;40.58;;;-1.90;99.90;;;;;;4997136;28;20213;-72
2024/01/11 07:11:56;;;;;;;98.72;44.40;;;-1.90;99.90;;;;;;4994771;28;20241;-69
2024/01/11 07:14:23;;;;;;;99.13;43.55;;;-1.90;99.90;;;;;;4995530;28;20438;-70
2024/01/11 07:16:51;;;;;;;107.88;44.38;;;-1.90;99.90;;;;;;4997043;28;20218;-70
2024/01/11 07:19:18;;;;;;;126.60;45.38;;;-1.90;99.90;;;;;;4997221;28;20237;-69
2024/01/11 07:21:45;;;;;;;119.07;43.90;;;-2.10;99.90;;;;;;5004149;28;20335;-70
2024/01/11 07:24:12;;;;;;;131.80;46.75;;;-2.10;99.90;;;;;;4995941;28;20228;-69
2024/01/11 07:26:39;;;;;;;156.80;49.47;;;-2.10;99.90;;;;;;4988947;28;20198;-70
2024/01/11 07:29:06;;;;;;;120.68;41.50;;;-2.10;99.90;;;;;;4994753;28;20210;-71
2024/01/11 07:31:33;;;;;;;136.07;47.83;;;-2.20;99.90;;;;;;5002593;28;20299;-71
2024/01/11 07:34:02;;;;;;;169.27;52.72;;;-2.20;99.90;;;;;;4999194;28;20314;-68
2024/01/11 07:36:29;;;;;;;175.23;50.65;;;-2.40;99.90;;;;;;4999213;28;20229;-69
2024/01/11 07:38:57;;;;;;;147.35;54.05;;;-2.30;99.90;;;;;;4999882;28;20209;-69
2024/01/11 07:41:24;;;;;;;161.50;55.03;;;-2.30;99.90;;;;;;4992416;28;21113;-70
2024/01/11 07:43:51;;;;;;;168.63;47.35;;;-2.40;99.90;;;;;;4998926;28;20345;-69
2024/01/11 07:46:18;;;;;;;168.68;50.15;;;-2.40;99.90;;;;;;5001095;28;20201;-69
2024/01/11 07:48:45;;;;;;;182.48;53.65;;;-2.50;99.90;;;;;;4993778;28;20660;-70
2024/01/11 07:51:13;;;;;;;139.60;50.38;;;-2.50;99.90;;;;;;4997237;28;20217;-70
2024/01/11 07:53:40;;;;;;;136.98;51.08;;;-2.50;99.90;;;;;;4992160;28;20202;-69
2024/01/11 07:56:08;;;;;;;131.80;42.38;;;-2.30;99.90;;;;;;4998574;28;20233;-70
2024/01/11 07:58:37;;;;;;;127.25;44.45;;;-2.10;99.90;;;;;;5006393;28;20305;-71
2024/01/11 08:01:04;;;;;;;131.15;47.83;;;-2.00;99.90;;;;;;5000408;28;20303;-70
2024/01/11 08:03:31;;;;;;;116.15;44.67;;;-1.80;99.90;;;;;;5001603;28;20226;-71
2024/01/11 08:05:58;;;;;;;131.13;45.45;;;-1.60;99.90;;;;;;4997878;28;20296;-71
2024/01/11 08:08:27;;;;;;;131.55;44.20;;;-1.60;99.90;;;;;;4998355;28;20333;-71
2024/01/11 08:10:54;;;;;;;124.13;46.97;;;-1.60;99.90;;;;;;4995679;28;20786;-70
2024/01/11 08:13:22;;;;;;;120.03;44.28;;;-1.60;99.90;;;;;;4998850;28;20225;-69
2024/01/11 08:15:49;;;;;;;120.95;43.38;;;-1.50;99.90;;;;;;5005312;28;20260;-69
2024/01/11 08:18:18;;;;;;;132.25;46.97;;;-1.40;99.90;;;;;;5000144;28;20237;-71
2024/01/11 08:20:46;;;;;;;142.35;47.65;;;-1.40;99.90;;;;;;4993640;28;20548;-72
2024/01/11 08:23:13;;;;;;;155.65;47.38;;;-1.40;99.90;;;;;;5001168;28;20538;-71
2024/01/11 08:25:41;;;;;;;128.80;45.75;;;-1.30;99.90;;;;;;4997894;28;20214;-70
2024/01/11 08:28:08;;;;;;;120.28;44.03;;;-1.20;99.90;;;;;;5001932;28;20542;-72
2024/01/11 08:30:36;;;;;;;142.98;48.10;;;-1.20;99.90;;;;;;4995070;28;20248;-71
2024/01/11 08:33:04;;;;;;;168.63;52.35;;;-1.20;99.90;;;;;;4997255;28;20294;-70
2024/01/11 08:35:32;;;;;;;144.23;45.83;;;-1.20;99.90;;;;;;4990852;28;20284;-68
2024/01/11 08:37:59;;;;;;;163.52;61.22;;;-1.20;99.90;;;;;;5001513;28;20316;-70
2024/01/11 08:40:26;;;;;;;170.43;55.22;;;-1.20;99.90;;;;;;4993029;28;20345;-68
2024/01/11 08:42:54;;;;;;;152.63;47.47;;;-1.30;99.90;;;;;;4998672;28;20228;-70
2024/01/11 08:45:22;;;;;;;126.63;47.58;;;-1.30;99.90;;;;;;5003462;28;20277;-69
2024/01/11 08:47:49;;;;;;;133.48;44.90;;;-1.10;99.90;;;;;;5001289;28;20202;-70
2024/01/11 08:50:17;;;;;;;153.60;53.10;;;-1.00;99.90;;;;;;4997415;28;20206;-70
2024/01/11 08:52:46;;;;;;;124.75;43.15;;;-0.90;99.90;;;;;;4993491;28;20252;-70
2024/01/11 08:55:13;;;;;;;133.93;47.53;;;-1.00;99.90;;;;;;4992776;28;20202;-70
2024/01/11 08:57:41;;;;;;;127.30;46.25;;;-0.90;99.90;;;;;;4999642;28;20621;-68
2024/01/11 09:00:10;;;;;;;126.82;49.13;;;-0.90;99.90;;;;;;4992360;28;20206;-69
2024/01/11 09:02:37;;;;;;;125.80;45.25;;;-0.80;99.90;;;;;;4997170;28;20225;-71
2024/01/11 09:05:07;;;;;;;118.47;44.40;;;-0.80;99.90;;;;;;5001292;28;20210;-71
2024/01/11 09:07:34;;;;;;;135.48;46.40;;;-0.70;99.90;;;;;;5007275;28;20199;-68
2024/01/11 09:10:01;;;;;;;118.80;46.28;;;-0.70;99.90;;;;;;4996683;28;20256;-69
2024/01/11 09:12:28;;;;;;;134.95;48.55;;;-0.70;99.90;;;;;;5001838;28;20218;-68
2024/01/11 09:14:55;;;;;;;139.20;55.97;;;-0.60;99.90;;;;;;4997278;28;20483;-70
2024/01/11 09:17:24;;;;;;;129.13;48.97;;;-0.50;99.90;;;;;;5003626;28;20253;-70
2024/01/11 09:19:51;;;;;;;111.97;44.65;;;-0.60;99.90;;;;;;5000184;28;20201;-69
2024/01/11 09:22:18;;;;;;;122.90;50.20;;;-0.60;99.90;;;;;;4997301;28;20236;-71
2024/01/11 09:24:45;;;;;;;126.93;42.58;;;-0.40;99.90;;;;;;4997566;28;20260;-68
2024/01/11 09:27:12;;;;;;;127.97;50.50;;;-0.50;99.90;;;;;;4992726;28;20202;-70
2024/01/11 09:29:43;;;;;;;141.32;50.50;;;-0.50;99.90;;;;;;4998164;28;20743;-70
2024/01/11 09:32:11;;;;;;;128.00;46.88;;;-0.50;99.90;;;;;;4996954;28;20352;-70
2024/01/11 09:34:39;;;;;;;112.95;44.42;;;-0.40;99.90;;;;;;4995793;28;20664;-71
2024/01/11 09:37:07;;;;;;;128.45;45.15;;;-0.50;99.90;;;;;;5002108;28;20271;-71
2024/01/11 09:39:35;;;;;;;77.72;31.02;;;-0.40;99.90;;;;;;5004914;28;20213;-71
2024/01/11 09:42:09;;;;;;;105.00;39.10;;;-0.30;99.90;;;;;;4994397;28;20324;-70
2024/01/11 09:44:38;;;;;;;101.25;38.15;;;0.30;99.90;;;;;;4997726;28;20285;-69
2024/01/11 09:47:07;;;;;;;115.38;44.30;;;0.40;99.90;;;;;;5001309;28;20803;-71
2024/01/11 09:49:37;;;;;;;95.07;41.13;;;0.40;99.90;;;;;;4996564;28;20206;-71
2024/01/11 09:52:08;;;;;;;131.80;45.95;;;0.40;99.90;;;;;;4994784;28;20708;-70
2024/01/11 09:54:36;;;;;;;102.80;41.03;;;0.40;99.90;;;;;;4993637;28;20202;-72
2024/01/11 09:57:05;;;;;;;114.97;43.50;;;0.30;99.90;;;;;;4996774;28;20259;-71
2024/01/11 09:59:35;;;;;;;115.53;43.85;;;0.20;99.90;;;;;;4992594;28;20202;-71
2024/01/11 10:02:07;;;;;;;108.60;44.28;;;0.20;99.90;;;;;;4999637;28;20219;-68
2024/01/11 10:04:35;;;;;;;112.93;42.05;;;0.10;99.90;;;;;;5000479;28;20620;-69
2024/01/11 10:07:06;;;;;;;103.35;41.67;;;0.10;99.90;;;;;;5002776;28;20247;-70
2024/01/11 10:09:33;;;;;;;112.70;43.90;;;0.00;99.90;;;;;;5005496;28;20210;-70
2024/01/11 10:12:00;;;;;;;98.88;43.03;;;0.10;99.90;;;;;;4999968;28;20294;-72
2024/01/11 10:14:28;;;;;;;106.72;39.17;;;0.40;99.90;;;;;;4998865;28;20287;-71
2024/01/11 10:16:55;;;;;;;107.75;40.63;;;0.60;99.90;;;;;;4995733;28;20225;-71
2024/01/11 10:19:22;;;;;;;94.80;40.20;;;0.60;99.90;;;;;;4996004;28;20297;-70
2024/01/11 10:21:49;;;;;;;101.85;42.03;;;0.80;99.90;;;;;;4999081;28;20651;-70
2024/01/11 10:24:23;;;;;;;96.47;40.25;;;0.60;99.90;;;;;;4998090;28;20206;-69
2024/01/11 10:26:51;;;;;;;99.68;40.67;;;0.70;99.90;;;;;;5001160;28;20210;-69
2024/01/11 10:29:18;;;;;;;97.45;37.00;;;0.70;99.90;;;;;;4999135;28;20679;-69
2024/01/11 10:31:45;;;;;;;104.00;41.00;;;0.70;99.90;;;;;;5001217;28;20230;-69
2024/01/11 10:34:12;;;;;;;95.75;40.42;;;0.60;99.90;;;;;;4996333;28;20206;-71
2024/01/11 10:36:40;;;;;;;85.03;35.90;;;0.70;99.90;;;;;;5005854;28;20257;-70
2024/01/11 10:39:11;;;;;;;103.57;40.42;;;0.80;99.90;;;;;;4996817;28;20226;-70
2024/01/11 10:41:41;;;;;;;94.85;38.38;;;0.90;99.90;;;;;;5005550;28;20225;-69
2024/01/11 10:44:17;;;;;;;92.22;40.17;;;1.00;99.90;;;;;;5005081;28;20206;-70
2024/01/11 10:46:47;;;;;;;78.72;36.03;;;0.90;99.90;;;;;;4995723;28;20277;-71
2024/01/11 10:49:17;;;;;;;96.28;38.60;;;1.00;99.90;;;;;;5003229;28;20397;-70
2024/01/11 10:51:51;;;;;;;101.13;39.03;;;0.90;99.90;;;;;;5001659;28;20234;-70
2024/01/11 10:54:20;;;;;;;92.22;34.97;;;1.00;99.90;;;;;;4999980;28;20204;-70
2024/01/11 10:56:49;;;;;;;84.95;40.35;;;1.00;99.90;;;;;;5002377;28;20233;-71
2024/01/11 10:59:19;;;;;;;92.03;38.28;;;1.20;99.90;;;;;;4997777;28;20225;-71
2024/01/11 11:01:47;;;;;;;85.97;39.60;;;1.30;99.90;;;;;;4998853;28;20221;-70
2024/01/11 11:04:16;;;;;;;81.40;39.90;;;1.40;99.90;;;;;;5009051;28;20206;-70
2024/01/11 11:06:44;;;;;;;81.28;37.33;;;1.50;99.90;;;;;;5005858;28;20213;-71
2024/01/11 11:09:14;;;;;;;78.60;34.65;;;1.50;99.90;;;;;;5004707;28;20595;-70
2024/01/11 11:11:42;;;;;;;68.25;32.25;;;1.50;99.90;;;;;;5003189;28;20222;-68
2024/01/11 11:14:11;;;;;;;83.45;36.58;;;1.60;99.90;;;;;;5000564;28;20210;-70
2024/01/11 11:16:38;;;;;;;84.05;35.78;;;1.70;99.90;;;;;;4995830;28;20260;-70
2024/01/11 11:19:05;;;;;;;83.68;36.17;;;1.60;99.90;;;;;;5008326;28;20267;-71
2024/01/11 11:21:32;;;;;;;90.25;37.72;;;1.50;99.90;;;;;;5005136;28;20256;-72
2024/01/11 11:24:00;;;;;;;81.30;35.92;;;1.60;99.90;;;;;;5006264;28;20205;-71
2024/01/11 11:26:28;;;;;;;89.65;35.38;;;1.60;99.90;;;;;;5002178;28;20201;-70
2024/01/11 11:28:55;;;;;;;82.65;33.58;;;1.60;99.90;;;;;;5006318;28;20300;-70
2024/01/11 11:31:39;;;;;;;79.93;34.65;;;1.60;99.90;;;;;;5008977;28;20717;-71
2024/01/11 11:34:06;;;;;;;76.15;34.90;;;1.60;99.90;;;;;;4999909;28;20244;-70
2024/01/11 11:36:35;;;;;;;73.60;33.05;;;1.60;99.90;;;;;;5002722;28;20276;-67
2024/01/11 11:39:03;;;;;;;77.72;33.08;;;1.60;99.90;;;;;;4998392;28;20313;-71
2024/01/11 11:41:32;;;;;;;82.32;35.50;;;1.60;99.90;;;;;;5004765;28;20305;-71
2024/01/11 11:44:02;;;;;;;63.90;30.17;;;1.70;99.90;;;;;;5000095;28;20755;-70
2024/01/11 11:46:31;;;;;;;85.78;32.95;;;1.70;99.90;;;;;;5005702;28;20206;-68
2024/01/11 11:48:59;;;;;;;72.53;32.28;;;1.70;99.90;;;;;;5001892;28;20726;-70
2024/01/11 11:51:27;;;;;;;84.35;33.88;;;1.80;99.90;;;;;;5011782;28;20221;-70
2024/01/11 11:53:54;;;;;;;84.18;36.17;;;1.90;99.90;;;;;;5010610;28;20260;-69
2024/01/11 11:56:23;;;;;;;79.93;35.83;;;1.90;99.90;;;;;;4999762;28;20202;-72
2024/01/11 11:58:52;;;;;;;74.18;31.90;;;2.10;99.90;;;;;;5002551;28;20271;-70
2024/01/11 12:01:20;;;;;;;73.45;35.88;;;2.20;99.90;;;;;;4995283;28;20552;-72
2024/01/11 12:03:50;;;;;;;85.55;37.95;;;2.20;99.90;;;;;;5001159;28;20197;-71
2024/01/11 12:06:22;;;;;;;74.38;33.53;;;2.30;99.90;;;;;;5003420;28;20206;-75
2024/01/11 12:08:49;;;;;;;70.85;32.17;;;2.40;99.90;;;;;;4993724;28;20665;-72
2024/01/11 12:11:19;;;;;;;76.07;34.47;;;2.50;99.90;;;;;;4994419;28;20213;-73
2024/01/11 12:13:48;;;;;;;95.55;39.20;;;2.40;99.90;;;;;;5009606;28;20206;-73
2024/01/11 12:16:15;;;;;;;76.38;35.85;;;2.40;99.90;;;;;;5003381;28;20210;-72
2024/01/11 12:18:42;;;;;;;81.47;33.00;;;2.30;99.90;;;;;;4996901;28;20253;-72
2024/01/11 12:21:09;;;;;;;66.85;30.80;;;2.30;99.90;;;;;;4997321;28;20206;-72
2024/01/11 12:23:40;;;;;;;74.95;36.42;;;2.40;99.90;;;;;;5003004;28;20202;-73
2024/01/11 12:26:12;;;;;;;80.82;34.95;;;2.50;99.90;;;;;;5000619;28;20201;-71
2024/01/11 12:28:40;;;;;;;76.55;35.03;;;2.50;99.90;;;;;;5009076;28;20222;-73